• Join FlightAware (Why Join?)
  • Login
  • US Flag 
01:09PM EDT


 

Airport Tracker/Info


-or-


 

Live Flight TrackerFlight Track Log ✈ N50KC ✈ 09-Dec-2013 ✈ KOXC - SAEZ / EZE

Flight Track Log - Related Links

Times and Time Zones

All times are in EST time to prevent confusion due to time zone crossing. See the N50KC flight status page for this flight to view local times or setup timezone preferences in your user account.

Time Position Orientation Groundspeed Altitude Reporting Facility
EST Latitude Longitude Course Direction KTS MPH feet Rate Location/Type
07:10PM 41.3589 -73.0990 151° Southeast 249 287 6,000  Level FlightAware ADS-B (KSNC)
07:11PM 41.3440 -73.0806 137° Southeast 267 307 6,900 2,280 Climbing FlightAware ADS-B (KSNC)
07:11PM 41.3232 -73.0469 129° Southeast 294 338 7,900 1,800 Climbing FlightAware ADS-B (KSNC)
07:12PM 41.3049 -73.0134 126° Southeast 306 352 8,400 840 Climbing FlightAware ADS-B (KSNC)
07:12PM 41.2852 -72.9762 125° Southeast 305 351 8,500 60 Climbing FlightAware ADS-B (KSNC)
07:12PM 41.2583 -72.9263 126° Southeast 305 351 8,500  Level FlightAware ADS-B (KSNC)
07:13PM 41.2417 -72.8958 126° Southeast 303 349 8,500  Level FlightAware ADS-B (KSNC)
07:13PM 41.2344 -72.8825 126° Southeast 304 350 8,500  Level FlightAware ADS-B (KSNC)
07:14PM 41.1979 -72.8159 126° Southeast 305 351 8,500 420 Level FlightAware ADS-B (KSNC)
07:14PM 41.1788 -72.7861 130° Southeast 296 341 8,900 1,320 Climbing FlightAware ADS-B (KSNC)
07:15PM 41.1180 -72.7418 151° Southeast 327 376 10,100 1,440 Climbing FlightAware ADS-B (KSNC)
07:16PM 41.0651 -72.7086 155° Southeast 362 417 11,100 1,800 Climbing FlightAware ADS-B (KSNC)
07:16PM 40.9965 -72.6661 155° Southeast 378 435 12,600 2,220 Climbing FlightAware ADS-B (KSNC)
07:17PM 40.9308 -72.6257 155° Southeast 388 447 14,100 2,160 Climbing FlightAware ADS-B (KSNC)
07:17PM 40.8848 -72.5973 155° Southeast 396 456 15,300 2,220 Climbing FlightAware ADS-B (KSNC)
07:18PM 40.8133 -72.5618 159° South 382 440 16,900 2,400 Climbing FlightAware ADS-B (KSNC)
07:19PM 40.7481 -72.5502 172° South 368 423 18,400 2,280 Climbing FlightAware ADS-B (KSNC)
07:19PM 40.6835 -72.5462 177° South 372 428 19,800 2,040 Climbing FlightAware ADS-B (KSNC)
07:20PM 40.6030 -72.5413 177° South 378 435 21,200 1,920 Climbing FlightAware ADS-B (KSNC)
07:21PM 40.5416 -72.5373 177° South 387 445 22,400 1,740 Climbing FlightAware ADS-B (KSNC)
07:21PM 40.4840 -72.5337 177° South 394 453 23,400 1,500 Climbing FlightAware ADS-B (KSNC)
07:22PM 40.3934 -72.5284 177° South 406 467 24,400 1,440 Climbing FlightAware ADS-B (KSNC)
07:23PM 40.3010 -72.5227 177° South 419 482 25,600 1,500 Climbing FlightAware ADS-B (KSNC)
07:24PM 40.1932 -72.5159 177° South 429 494 27,000 1,500 Climbing FlightAware ADS-B (KSNC)
07:25PM 40.0486 -72.5070 177° South 442 509 28,900 1,500 Climbing FlightAware ADS-B (KSNC)
07:25PM 39.9847 -72.5039 177° South 440 506 29,700 1,440 Climbing Boston Center
07:27PM 39.8617 -72.4936 176° South 440 506 31,300 1,260 Climbing New York Center
07:33PM 39.0959 -72.4688 176° South 448 516 38,700 1,200 Climbing FlightAware ADS-B (KWWD)
07:34PM 38.9397 -72.4635 179° South 437 503 40,000 960 Climbing FlightAware ADS-B (KWWD)
07:34PM 38.8730 -72.4613 179° South 437 503 40,500 780 Climbing FlightAware ADS-B (KWWD)
07:35PM 38.7916 -72.4587 179° South 436 502 41,000 360 Climbing FlightAware ADS-B (KWWD)
07:36PM 38.7199 -72.4563 179° South 438 504 41,000  Level FlightAware ADS-B (KWWD)
07:36PM 38.6262 -72.4533 179° South 449 517 41,000  Level FlightAware ADS-B (KWWD)
07:37PM 38.5521 -72.4508 179° South 450 518 41,000  Level FlightAware ADS-B (KWWD)
07:38PM 38.4780 -72.4484 179° South 450 518 41,000  Level FlightAware ADS-B (KWWD)
07:38PM 38.3910 -72.4455 179° South 450 518 41,000  Level FlightAware ADS-B (KWWD)
07:39PM 38.3286 -72.4435 179° South 449 517 41,000  Level FlightAware ADS-B (KWWD)
07:39PM 38.2518 -72.4410 179° South 449 517 41,000  Level FlightAware ADS-B (KWWD)
07:40PM 38.1825 -72.4388 179° South 449 517 41,000  Level FlightAware ADS-B (KWWD)
07:42PM 37.9006 -72.4296 179° South 451 519 41,000  Level FlightAware ADS-B (KWWD)
07:43PM 37.8056 -72.4266 179° South 438 504 41,000  Level FlightAware ADS-B (KWWD)
07:44PM 37.6946 -72.4231 179° South 438 504 41,000  Level FlightAware ADS-B (KWWD)
07:45PM 37.6272 -72.4294 179° South 456 525 41,000  Level New York Center
07:46PM 37.5000 -72.4214 177° South 438 504 41,000  Level New York Center
07:47PM 37.3708 -72.4158 178° South 452 520 41,000  Level New York Center
07:48PM 37.2458 -72.4103 178° South 452 520 41,000  Level New York Center
07:49PM 37.1228 -72.4078 179° South 452 520 41,000  Level New York Center
07:50PM 36.9956 -72.4022 178° South 462 532 41,000  Level New York Center
07:51PM 36.8706 -72.3969 178° South 462 532 41,000  Level New York Center
07:52PM 36.7350 -72.3939 179° South 463 533 41,000  Level New York Center
07:53PM 36.6056 -72.3961 181° South 463 533 41,000  Level New York Center
07:54PM 36.4886 -72.3964 180° South 452 520 41,000  Level New York Center
07:55PM 36.3572 -72.3986 181° South 457 526 41,000  Level New York Center
07:56PM 36.2278 -72.3983 180° South 463 533 41,000  Level New York Center
07:57PM 36.1006 -72.4008 181° South 463 533 41,000  Level New York Center
07:58PM 35.9756 -72.4006 180° South 454 522 41,000  Level New York Center
07:59PM 35.8481 -72.4031 181° South 454 522 41,000  Level New York Center
08:00PM 35.7208 -72.4028 180° South 467 537 41,000  Level New York Center
08:01PM 35.5914 -72.4078 182° South 462 532 41,000  Level New York Center
08:02PM 35.4664 -72.4050 179° South 456 525 41,000  Level New York Center
08:03PM 35.3328 -72.4072 181° South 463 533 41,000  Level New York Center
08:04PM 35.2056 -72.4097 181° South 463 533 41,000  Level New York Center
08:05PM 35.0783 -72.4094 180° South 458 527 41,000  Level New York Center
08:06PM 34.9450 -72.3967 176° South 463 533 41,000  Level New York Center
08:08PM 34.6963 -72.3648 176° South  Level FlightAware Approximate
08:15PM 33.7976 -72.2521 167° South  Level FlightAware Approximate
08:16PM 33.6717 -72.2166 167° South  Level FlightAware Approximate
08:17PM 33.5458 -72.1811 167° South  Level FlightAware Approximate
08:17PM 33.9833 -72.3000 167° South 467 537 41,000  Level New York Oceanic (ODAPS)
08:18PM 33.4199 -72.1458 167° South  Level FlightAware Approximate
08:19PM 33.2939 -72.1105 167° South  Level FlightAware Approximate
08:20PM 33.1680 -72.0754 167° South  Level FlightAware Approximate
08:21PM 33.0420 -72.0404 167° South  Level FlightAware Approximate
08:22PM 32.9160 -72.0058 167° South  Level FlightAware Approximate
08:23PM 32.7900 -71.9713 167° South  Level FlightAware Approximate
08:24PM 32.4598 -71.8897 167° South 467 537 41,000  Level FlightAware Transoceanic
08:25PM 32.3327 -71.8561 167° South 467 537 41,000  Level FlightAware Transoceanic
08:26PM 32.2057 -71.8227 167° South 467 537 41,000  Level FlightAware Transoceanic
08:27PM 32.0787 -71.7893 167° South 467 537 41,000  Level FlightAware Transoceanic
08:28PM 31.9516 -71.7560 167° South 467 537 41,000  Level FlightAware Transoceanic
08:29PM 31.8246 -71.7228 168° South 467 537 41,000  Level FlightAware Transoceanic
08:30PM 31.6975 -71.6897 168° South 467 537 41,000  Level FlightAware Transoceanic
08:31PM 31.5704 -71.6567 168° South 467 537 41,000  Level FlightAware Transoceanic
08:32PM 31.4433 -71.6238 168° South 467 537 41,000  Level FlightAware Transoceanic
08:33PM 31.3163 -71.5910 168° South 467 537 41,000  Level FlightAware Transoceanic
08:34PM 31.1892 -71.5582 168° South 467 537 41,000  Level FlightAware Transoceanic
08:35PM 31.0620 -71.5256 168° South 467 537 41,000  Level FlightAware Transoceanic
08:36PM 30.9349 -71.4930 168° South 467 537 41,000  Level FlightAware Transoceanic
08:37PM 30.8078 -71.4605 168° South 467 537 41,000  Level FlightAware Transoceanic
08:38PM 30.6807 -71.4281 168° South 467 537 41,000  Level FlightAware Transoceanic
08:39PM 30.5535 -71.3959 168° South 467 537 41,000  Level FlightAware Transoceanic
08:40PM 30.4264 -71.3636 168° South 467 537 41,000  Level FlightAware Transoceanic
08:41PM 30.2992 -71.3315 168° South 467 537 41,000  Level FlightAware Transoceanic
08:42PM 30.1721 -71.2994 168° South 467 537 41,000  Level FlightAware Transoceanic
08:43PM 30.0449 -71.2675 168° South 467 537 41,000  Level FlightAware Transoceanic
08:44PM 29.9177 -71.2356 168° South 467 537 41,000  Level FlightAware Transoceanic
08:45PM 29.7905 -71.2038 168° South 467 537 41,000  Level FlightAware Transoceanic
08:46PM 29.6633 -71.1720 168° South 467 537 41,000  Level FlightAware Transoceanic
08:47PM 29.5361 -71.1404 168° South 467 537 41,000  Level FlightAware Transoceanic
08:48PM 29.4089 -71.1088 168° South 467 537 41,000  Level FlightAware Transoceanic
08:49PM 29.2817 -71.0773 168° South 467 537 41,000  Level FlightAware Transoceanic
08:50PM 29.1545 -71.0459 168° South 467 537 41,000  Level FlightAware Transoceanic
08:51PM 29.0272 -71.0146 168° South 467 537 41,000  Level FlightAware Transoceanic
08:52PM 28.9000 -70.9833 168° South 467 537 41,000  Level FlightAware Transoceanic
08:53PM 28.7656 -70.9500 168° South 467 537 41,000  Level FlightAware Transoceanic
08:54PM 28.6312 -70.9168 168° South 467 537 41,000  Level FlightAware Transoceanic
08:54PM 28.9000 -70.9833 168° South 493 567 41,000  Level New York Oceanic (ODAPS)
08:55PM 28.4968 -70.8837 168° South 467 537 41,000  Level FlightAware Transoceanic
08:56PM 28.3624 -70.8506 168° South 467 537 41,000  Level FlightAware Transoceanic
08:57PM 28.2280 -70.8177 168° South 467 537 41,000  Level FlightAware Transoceanic
08:58PM 28.0936 -70.7848 168° South 467 537 41,000  Level FlightAware Transoceanic
08:59PM 27.9592 -70.7520 168° South 467 537 41,000  Level FlightAware Transoceanic
09:00PM 27.8248 -70.7193 168° South 493 567 41,000  Level FlightAware Transoceanic
09:01PM 27.6903 -70.6867 168° South 493 567 41,000  Level FlightAware Transoceanic
09:02PM 27.5559 -70.6541 168° South 493 567 41,000  Level FlightAware Transoceanic
09:03PM 27.4214 -70.6216 168° South 493 567 41,000  Level FlightAware Transoceanic
09:04PM 27.2870 -70.5892 168° South 493 567 41,000  Level FlightAware Transoceanic
09:05PM 27.1525 -70.5569 168° South 493 567 41,000  Level FlightAware Transoceanic
09:06PM 27.0180 -70.5247 168° South 493 567 41,000  Level FlightAware Transoceanic
09:07PM 26.8835 -70.4925 168° South 493 567 41,000  Level FlightAware Transoceanic
09:08PM 26.7490 -70.4604 168° South 493 567 41,000  Level FlightAware Transoceanic
09:09PM 26.6145 -70.4284 168° South 493 567 41,000  Level FlightAware Transoceanic
09:10PM 26.4800 -70.3965 168° South 493 567 41,000  Level FlightAware Transoceanic
09:11PM 26.3455 -70.3646 168° South 493 567 41,000  Level FlightAware Transoceanic
09:12PM 26.2110 -70.3328 168° South 493 567 41,000  Level FlightAware Transoceanic
09:13PM 26.0765 -70.3011 168° South 493 567 41,000  Level FlightAware Transoceanic
09:14PM 25.9419 -70.2695 168° South 493 567 41,000  Level FlightAware Transoceanic
09:15PM 25.8074 -70.2379 168° South 493 567 41,000  Level FlightAware Transoceanic
09:16PM 25.6728 -70.2064 168° South 493 567 41,000  Level FlightAware Transoceanic
09:17PM 25.5383 -70.1750 168° South 493 567 41,000  Level FlightAware Transoceanic
09:18PM 25.4037 -70.1436 168° South 493 567 41,000  Level FlightAware Transoceanic
09:19PM 25.2692 -70.1124 168° South 493 567 41,000  Level FlightAware Transoceanic
09:20PM 25.1346 -70.0811 168° South 493 567 41,000  Level FlightAware Transoceanic
09:21PM 25.0000 -70.0500 176° South 493 567 41,000  Level FlightAware Transoceanic
09:22PM 24.8676 -70.0410 176° South 493 567 41,000 1,260 Level FlightAware Transoceanic
09:22PM 24.9233 -70.0447 176° South 486 559 43,000  Climbing Miami Center
09:23PM 24.7353 -70.0321 176° South 493 567 41,000  Descending FlightAware Transoceanic
09:23PM 24.7900 -70.0453 180° South 499 574 43,000  Climbing Miami Center
09:24PM 24.6029 -70.0231 176° South 493 567 41,000  Descending FlightAware Transoceanic
09:24PM 24.6614 -70.0661 188° South 484 557 43,000  Climbing Miami Center
09:25PM 24.4706 -70.0142 176° South 493 567 41,000  Descending FlightAware Transoceanic
09:25PM 24.5292 -70.0894 189° South 484 557 43,000  Climbing Miami Center
09:26PM 24.3382 -70.0053 176° South 493 567 41,000  Descending FlightAware Transoceanic
09:26PM 24.3986 -70.1125 189° South 484 557 43,000 1,260 Climbing Miami Center
09:27PM 24.2683 -70.1378 190° South 484 557 43,000  Level Miami Center
09:28PM 24.1356 -70.1561 187° South 484 557 43,000  Level Miami Center
09:29PM 24.0033 -70.1814 190° South 484 557 43,000  Level Miami Center
09:30PM 23.8731 -70.2089 191° South 484 557 43,000  Level Miami Center
09:31PM 23.7425 -70.2292 188° South 484 557 43,000  Level Miami Center
09:32PM 23.6081 -70.2544 190° South 484 557 43,000  Level Miami Center
09:33PM 23.4711 -70.2750 188° South 489 563 43,000  Level Miami Center
09:34PM 23.3389 -70.3044 192° South 489 563 43,000  Level Miami Center
09:35PM 23.2044 -70.3272 189° South 489 563 43,000  Level Miami Center
09:36PM 23.0633 -70.3456 187° South 500 575 43,000  Level Miami Center
09:37PM 22.9286 -70.3683 189° South 500 575 43,000  Level Miami Center
09:38PM 22.7964 -70.3972 191° South 500 575 43,000  Level Miami Center
09:39PM 22.6553 -70.4156 187° South 505 581 43,000  Level Miami Center
09:40PM 22.5186 -70.4403 189° South 505 581 43,000  Level Miami Center
09:41PM 22.3778 -70.4628 188° South 505 581 43,000  Level Miami Center
09:42PM 22.2392 -70.4897 190° South 510 587 43,000  Level Miami Center
09:43PM 22.0983 -70.5144 189° South 510 587 43,000  Level Miami Center
09:44PM 21.9594 -70.5367 188° South 510 587 43,000  Level Miami Center
09:45PM 21.8186 -70.5592 188° South 515 593 43,000  Level Miami Center
09:46PM 21.6800 -70.5814 188° South 515 593 43,000  Level Miami Center
09:47PM 21.5369 -70.6058 189° South 520 598 43,000  Level Miami Center
09:48PM 21.3983 -70.6300 189° South 520 598 43,000  Level Miami Center
09:49PM 21.2575 -70.6522 188° South 520 598 43,000  Level Miami Center
09:50PM 21.1022 -70.6792 189° South 520 598 43,000  Level Miami Center
09:51PM 20.9614 -70.7033 189° South 520 598 43,000  Level Miami Center
09:52PM 20.8225 -70.7253 188° South 520 598 43,000  Level Miami Center
09:53PM 20.6819 -70.7514 190° South 520 598 43,000  Level Miami Center
09:54PM 20.5431 -70.7731 188° South 520 598 43,000  Level Miami Center
09:55PM 20.4044 -70.7992 190° South 514 592 43,000  Level Miami Center
09:57PM 20.2276 -70.8408 192° South  Level FlightAware Approximate
10:04PM 19.3434 -71.0473 192° South  Level FlightAware Approximate
10:05PM 19.2171 -71.0766 192° South  Level FlightAware Approximate
10:06PM 19.0907 -71.1059 192° South  Level FlightAware Approximate
10:07PM 18.9644 -71.1351 192° South  Level FlightAware Approximate
10:08PM 18.8380 -71.1643 192° South  Level FlightAware Approximate
10:09PM 18.7117 -71.1934 192° South  Level FlightAware Approximate
10:10PM 18.5853 -71.2225 192° South  Level FlightAware Approximate
10:11PM 18.4590 -71.2516 192° South  Level FlightAware Approximate
10:12PM 18.3326 -71.2806 192° South  Level FlightAware Approximate
10:13PM 18.2062 -71.3096 192° South  Level FlightAware Approximate
10:14PM 18.0798 -71.3385 192° South  Level FlightAware Approximate
10:15PM 17.9535 -71.3674 192° South  Level FlightAware Approximate
10:16PM 17.8271 -71.3962 192° South  Level FlightAware Approximate
10:17PM 17.7007 -71.4250 192° South  Level FlightAware Approximate
10:18PM 17.5743 -71.4538 192° South  Level FlightAware Approximate
10:19PM 17.4479 -71.4825 192° South  Level FlightAware Approximate
10:20PM 17.3215 -71.5112 192° South  Level FlightAware Approximate
10:21PM 17.1951 -71.5398 192° South  Level FlightAware Approximate
10:22PM 17.0687 -71.5685 192° South  Level FlightAware Approximate
10:23PM 16.9423 -71.5970 192° South  Level FlightAware Approximate
10:24PM 16.8158 -71.6255 192° South  Level FlightAware Approximate
10:25PM 16.6894 -71.6540 192° South  Level FlightAware Approximate
10:26PM 16.5621 -71.6695 211° Southwest  Level FlightAware Approximate
10:27PM 16.4513 -71.7391 211° Southwest  Level FlightAware Approximate
10:28PM 16.3405 -71.8086 211° Southwest  Level FlightAware Approximate
10:29PM 16.2297 -71.8780 211° Southwest  Level FlightAware Approximate
10:30PM 16.1188 -71.9473 211° Southwest  Level FlightAware Approximate
10:31PM 16.0079 -72.0166 211° Southwest  Level FlightAware Approximate
10:32PM 15.8970 -72.0857 211° Southwest  Level FlightAware Approximate
10:33PM 15.7860 -72.1548 211° Southwest  Level FlightAware Approximate
10:34PM 15.6751 -72.2239 211° Southwest  Level FlightAware Approximate
10:35PM 15.5641 -72.2928 211° Southwest  Level FlightAware Approximate
10:36PM 15.4531 -72.3617 211° Southwest  Level FlightAware Approximate
10:37PM 15.3421 -72.4305 211° Southwest  Level FlightAware Approximate
10:38PM 15.2310 -72.4993 211° Southwest  Level FlightAware Approximate
10:39PM 15.1200 -72.5679 211° Southwest  Level FlightAware Approximate
10:40PM 15.0089 -72.6365 211° Southwest  Level FlightAware Approximate
10:41PM 14.8978 -72.7050 211° Southwest  Level FlightAware Approximate
10:42PM 14.7866 -72.7735 211° Southwest  Level FlightAware Approximate
10:43PM 14.6755 -72.8419 211° Southwest  Level FlightAware Approximate
10:44PM 14.5643 -72.9102 211° Southwest  Level FlightAware Approximate
10:45PM 14.4531 -72.9784 211° Southwest  Level FlightAware Approximate
10:46PM 14.3419 -73.0466 211° Southwest  Level FlightAware Approximate
10:47PM 14.2307 -73.1147 211° Southwest  Level FlightAware Approximate
10:48PM 14.1194 -73.1827 211° Southwest  Level FlightAware Approximate
10:49PM 14.0082 -73.2507 211° Southwest  Level FlightAware Approximate
10:50PM 13.8964 -73.3167 180° South  Level FlightAware Approximate
10:51PM 13.7681 -73.3325 188° South  Level FlightAware Approximate
10:52PM 13.6399 -73.3501 188° South  Level FlightAware Approximate
10:53PM 13.5117 -73.3676 188° South  Level FlightAware Approximate
10:54PM 13.3835 -73.3851 188° South  Level FlightAware Approximate
10:55PM 13.2553 -73.4027 188° South  Level FlightAware Approximate
10:56PM 13.1271 -73.4202 188° South  Level FlightAware Approximate
10:57PM 12.9989 -73.4377 188° South  Level FlightAware Approximate
10:58PM 12.8707 -73.4551 188° South  Level FlightAware Approximate
10:59PM 12.7424 -73.4725 188° South  Level FlightAware Approximate
11:00PM 12.6142 -73.4900 188° South  Level FlightAware Approximate
11:01PM 12.4860 -73.5074 188° South  Level FlightAware Approximate
11:02PM 12.3578 -73.5248 188° South  Level FlightAware Approximate
11:03PM 12.2296 -73.5422 188° South  Level FlightAware Approximate
11:04PM 12.1014 -73.5595 188° South  Level FlightAware Approximate
11:05PM 11.9732 -73.5769 188° South  Level FlightAware Approximate
11:06PM 11.8449 -73.5942 188° South  Level FlightAware Approximate
11:07PM 11.7167 -73.6115 188° South  Level FlightAware Approximate
11:08PM 11.5885 -73.6288 188° South  Level FlightAware Approximate
11:09PM 11.4603 -73.6461 188° South  Level FlightAware Approximate
11:10PM 11.3321 -73.6633 188° South  Level FlightAware Approximate
11:11PM 11.2038 -73.6806 188° South  Level FlightAware Approximate
11:12PM 11.0754 -73.6963 187° South  Level FlightAware Approximate
11:13PM 10.9470 -73.7117 187° South  Level FlightAware Approximate
11:14PM 10.8186 -73.7271 187° South  Level FlightAware Approximate
11:15PM 10.6903 -73.7437 188° South  Level FlightAware Approximate
11:16PM 10.5621 -73.7610 188° South  Level FlightAware Approximate
11:17PM 10.4339 -73.7783 188° South  Level FlightAware Approximate
11:18PM 10.3056 -73.7956 188° South  Level FlightAware Approximate
11:19PM 10.1774 -73.8129 188° South  Level FlightAware Approximate
11:20PM 10.0492 -73.8302 188° South  Level FlightAware Approximate
11:21PM 9.9210 -73.8475 188° South  Level FlightAware Approximate
11:22PM 9.7928 -73.8647 188° South  Level FlightAware Approximate
11:23PM 9.6646 -73.8820 188° South  Level FlightAware Approximate
11:24PM 9.5364 -73.8992 188° South  Level FlightAware Approximate
11:25PM 9.4082 -73.9164 188° South  Level FlightAware Approximate
11:26PM 9.2800 -73.9336 188° South  Level FlightAware Approximate
11:27PM 9.1517 -73.9508 188° South  Level FlightAware Approximate
11:28PM 9.0235 -73.9658 175° South  Level FlightAware Approximate
11:29PM 8.8946 -73.9551 175° South  Level FlightAware Approximate
11:30PM 8.7657 -73.9443 175° South  Level FlightAware Approximate
11:31PM 8.6368 -73.9336 175° South  Level FlightAware Approximate
11:32PM 8.5079 -73.9228 175° South  Level FlightAware Approximate
11:33PM 8.3790 -73.9121 175° South  Level FlightAware Approximate
11:34PM 8.2501 -73.9014 175° South  Level FlightAware Approximate
11:35PM 8.1212 -73.8906 175° South  Level FlightAware Approximate
11:36PM 7.9923 -73.8800 175° South  Level FlightAware Approximate
11:37PM 7.8634 -73.8694 175° South  Level FlightAware Approximate
11:38PM 7.7345 -73.8588 175° South  Level FlightAware Approximate
11:39PM 7.6056 -73.8482 175° South  Level FlightAware Approximate
11:40PM 7.4767 -73.8376 175° South  Level FlightAware Approximate
11:41PM 7.3478 -73.8271 175° South  Level FlightAware Approximate
11:42PM 7.2189 -73.8165 175° South  Level FlightAware Approximate
11:43PM 7.0899 -73.8060 175° South  Level FlightAware Approximate
11:44PM 6.9676 -73.7733 152° Southeast  Level FlightAware Approximate
11:45PM 6.8538 -73.7114 152° Southeast  Level FlightAware Approximate
11:46PM 6.7399 -73.6496 152° Southeast  Level FlightAware Approximate
11:47PM 6.6261 -73.5877 152° Southeast  Level FlightAware Approximate
11:48PM 6.5123 -73.5259 152° Southeast  Level FlightAware Approximate
11:49PM 6.3984 -73.4641 152° Southeast  Level FlightAware Approximate
11:50PM 6.2846 -73.4024 152° Southeast  Level FlightAware Approximate
11:51PM 6.1708 -73.3407 152° Southeast  Level FlightAware Approximate
11:52PM 6.0569 -73.2790 152° Southeast  Level FlightAware Approximate
11:53PM 5.9430 -73.2173 152° Southeast  Level FlightAware Approximate
11:54PM 5.8291 -73.1557 152° Southeast  Level FlightAware Approximate
11:55PM 5.7153 -73.0941 152° Southeast  Level FlightAware Approximate
11:56PM 5.6014 -73.0325 152° Southeast  Level FlightAware Approximate
11:57PM 5.4875 -72.9709 152° Southeast  Level FlightAware Approximate
11:58PM 5.3736 -72.9094 152° Southeast  Level FlightAware Approximate
11:59PM 5.2597 -72.8479 152° Southeast  Level FlightAware Approximate
12:00AM 5.1458 -72.7864 152° Southeast  Level FlightAware Approximate
12:01AM 5.0318 -72.7249 152° Southeast  Level FlightAware Approximate
12:02AM 4.9179 -72.6635 152° Southeast  Level FlightAware Approximate
12:03AM 4.8040 -72.6020 152° Southeast  Level FlightAware Approximate
12:04AM 4.6900 -72.5406 152° Southeast  Level FlightAware Approximate
12:05AM 4.5761 -72.4792 152° Southeast  Level FlightAware Approximate
12:06AM 4.4621 -72.4179 152° Southeast  Level FlightAware Approximate
12:07AM 4.3482 -72.3565 152° Southeast  Level FlightAware Approximate
12:08AM 4.2342 -72.2952 152° Southeast  Level FlightAware Approximate
12:09AM 4.1203 -72.2339 152° Southeast  Level FlightAware Approximate
12:10AM 4.0063 -72.1726 152° Southeast  Level FlightAware Approximate
12:11AM 3.8881 -72.1224 166° South  Level FlightAware Approximate
12:12AM 3.7624 -72.0922 166° South  Level FlightAware Approximate
12:13AM 3.6366 -72.0619 166° South  Level FlightAware Approximate
12:14AM 3.5108 -72.0316 166° South  Level FlightAware Approximate
12:15AM 3.3851 -72.0014 166° South  Level FlightAware Approximate
12:16AM 3.2593 -71.9711 166° South  Level FlightAware Approximate
12:17AM 3.1336 -71.9409 166° South  Level FlightAware Approximate
12:18AM 3.0078 -71.9107 167° South  Level FlightAware Approximate
12:19AM 2.8821 -71.8804 167° South  Level FlightAware Approximate
12:20AM 2.7563 -71.8502 167° South  Level FlightAware Approximate
12:21AM 2.6305 -71.8200 167° South  Level FlightAware Approximate
12:22AM 2.5047 -71.7902 167° South  Level FlightAware Approximate
12:23AM 2.3788 -71.7605 167° South  Level FlightAware Approximate
12:24AM 2.2529 -71.7308 167° South  Level FlightAware Approximate
12:25AM 2.1270 -71.7011 167° South  Level FlightAware Approximate
12:26AM 2.0011 -71.6714 167° South  Level FlightAware Approximate
12:27AM 1.8753 -71.6418 167° South  Level FlightAware Approximate
12:28AM 1.7494 -71.6121 167° South  Level FlightAware Approximate
12:29AM 1.6235 -71.5824 167° South  Level FlightAware Approximate
12:30AM 1.4976 -71.5527 167° South  Level FlightAware Approximate
12:31AM 1.3717 -71.5231 167° South  Level FlightAware Approximate
12:32AM 1.2458 -71.4934 167° South  Level FlightAware Approximate
12:33AM 1.1200 -71.4637 167° South  Level FlightAware Approximate
12:34AM 0.9941 -71.4341 167° South  Level FlightAware Approximate
12:35AM 0.8682 -71.4044 167° South  Level FlightAware Approximate
12:36AM 0.7423 -71.3748 167° South  Level FlightAware Approximate
12:37AM 0.6164 -71.3451 167° South  Level FlightAware Approximate
12:38AM 0.4905 -71.3155 167° South  Level FlightAware Approximate
12:39AM 0.3646 -71.2858 167° South  Level FlightAware Approximate
12:40AM 0.2387 -71.2562 167° South  Level FlightAware Approximate
12:41AM 0.1128 -71.2265 167° South  Level FlightAware Approximate
12:42AM -0.0131 -71.1969 167° South  Level FlightAware Approximate
12:43AM -0.1390 -71.1672 167° South  Level FlightAware Approximate
12:44AM -0.2648 -71.1376 167° South  Level FlightAware Approximate
12:45AM -0.3907 -71.1079 167° South  Level FlightAware Approximate
12:46AM -0.5166 -71.0783 167° South  Level FlightAware Approximate
12:47AM -0.6425 -71.0486 167° South  Level FlightAware Approximate
12:48AM -0.7684 -71.0190 167° South  Level FlightAware Approximate
12:49AM -0.8943 -70.9893 167° South  Level FlightAware Approximate
12:50AM -1.0202 -70.9596 167° South  Level FlightAware Approximate
12:51AM -1.1461 -70.9300 167° South  Level FlightAware Approximate
12:52AM -1.2720 -70.9003 167° South  Level FlightAware Approximate
12:53AM -1.3979 -70.8707 167° South  Level FlightAware Approximate
12:54AM -1.5237 -70.8410 167° South  Level FlightAware Approximate
12:55AM -1.6496 -70.8113 167° South  Level FlightAware Approximate
12:56AM -1.7755 -70.7816 167° South  Level FlightAware Approximate
12:57AM -1.9014 -70.7520 167° South  Level FlightAware Approximate
12:58AM -2.0273 -70.7223 167° South  Level FlightAware Approximate
12:59AM -2.1531 -70.6926 167° South  Level FlightAware Approximate
01:00AM -2.2790 -70.6629 167° South  Level FlightAware Approximate
01:01AM -2.4049 -70.6332 167° South  Level FlightAware Approximate
01:02AM -2.5308 -70.6035 167° South  Level FlightAware Approximate
01:03AM -2.6567 -70.5738 167° South  Level FlightAware Approximate
01:04AM -2.7825 -70.5440 167° South  Level FlightAware Approximate
01:05AM -2.9084 -70.5143 167° South  Level FlightAware Approximate
01:06AM -3.0343 -70.4846 167° South  Level FlightAware Approximate
01:07AM -3.1602 -70.4548 167° South  Level FlightAware Approximate
01:08AM -3.2861 -70.4251 167° South  Level FlightAware Approximate
01:09AM -3.4119 -70.3954 167° South  Level FlightAware Approximate
01:10AM -3.5378 -70.3656 167° South  Level FlightAware Approximate
01:11AM -3.6637 -70.3358 167° South  Level FlightAware Approximate
01:12AM -3.7896 -70.3061 167° South  Level FlightAware Approximate
01:13AM -3.9154 -70.2763 167° South  Level FlightAware Approximate
01:14AM -4.0413 -70.2465 167° South  Level FlightAware Approximate
01:15AM -4.1672 -70.2167 167° South  Level FlightAware Approximate
01:16AM -4.2930 -70.1869 167° South  Level FlightAware Approximate
01:17AM -4.4189 -70.1571 167° South  Level FlightAware Approximate
01:18AM -4.5448 -70.1272 167° South  Level FlightAware Approximate
01:19AM -4.6706 -70.0974 167° South  Level FlightAware Approximate
01:20AM -4.7965 -70.0675 167° South  Level FlightAware Approximate
01:21AM -4.9223 -70.0377 167° South  Level FlightAware Approximate
01:22AM -5.0482 -70.0078 167° South  Level FlightAware Approximate
01:23AM -5.1741 -69.9779 167° South  Level FlightAware Approximate
01:24AM -5.2999 -69.9480 167° South  Level FlightAware Approximate
01:25AM -5.4258 -69.9181 167° South  Level FlightAware Approximate
01:26AM -5.5517 -69.8882 167° South  Level FlightAware Approximate
01:27AM -5.6775 -69.8582 167° South  Level FlightAware Approximate
01:28AM -5.8033 -69.8283 167° South  Level FlightAware Approximate
01:29AM -5.9292 -69.7983 167° South  Level FlightAware Approximate
01:30AM -6.0550 -69.7683 167° South  Level FlightAware Approximate
01:31AM -6.1809 -69.7383 167° South  Level FlightAware Approximate
01:32AM -6.3067 -69.7083 167° South  Level FlightAware Approximate
01:33AM -6.4326 -69.6783 167° South  Level FlightAware Approximate
01:34AM -6.5584 -69.6483 167° South  Level FlightAware Approximate
01:35AM -6.6843 -69.6182 167° South  Level FlightAware Approximate
01:36AM -6.8101 -69.5882 167° South  Level FlightAware Approximate
01:37AM -6.9359 -69.5581 167° South  Level FlightAware Approximate
01:38AM -7.0618 -69.5280 167° South  Level FlightAware Approximate
01:39AM -7.1876 -69.4979 167° South  Level FlightAware Approximate
01:40AM -7.3134 -69.4678 167° South  Level FlightAware Approximate
01:41AM -7.4393 -69.4376 167° South  Level FlightAware Approximate
01:42AM -7.5651 -69.4074 167° South  Level FlightAware Approximate
01:43AM -7.6909 -69.3773 167° South  Level FlightAware Approximate
01:44AM -7.8167 -69.3471 167° South  Level FlightAware Approximate
01:45AM -7.9426 -69.3168 167° South  Level FlightAware Approximate
01:46AM -8.0684 -69.2866 167° South  Level FlightAware Approximate
01:47AM -8.1942 -69.2563 167° South  Level FlightAware Approximate
01:48AM -8.3200 -69.2261 167° South  Level FlightAware Approximate
01:49AM -8.4458 -69.1958 167° South  Level FlightAware Approximate
01:50AM -8.5716 -69.1655 167° South  Level FlightAware Approximate
01:51AM -8.6974 -69.1351 167° South  Level FlightAware Approximate
01:52AM -8.8232 -69.1048 167° South  Level FlightAware Approximate
01:53AM -8.9490 -69.0744 167° South  Level FlightAware Approximate
01:54AM -9.0748 -69.0440 167° South  Level FlightAware Approximate
01:55AM -9.2006 -69.0136 167° South  Level FlightAware Approximate
01:56AM -9.3264 -68.9831 167° South  Level FlightAware Approximate
01:57AM -9.4522 -68.9527 167° South  Level FlightAware Approximate
01:58AM -9.5780 -68.9222 167° South  Level FlightAware Approximate
01:59AM -9.7038 -68.8917 167° South  Level FlightAware Approximate
02:00AM -9.8296 -68.8612 167° South  Level FlightAware Approximate
02:01AM -9.9554 -68.8306 167° South  Level FlightAware Approximate
02:02AM -10.0811 -68.8000 167° South  Level FlightAware Approximate
02:03AM -10.2069 -68.7694 167° South  Level FlightAware Approximate
02:04AM -10.3327 -68.7388 167° South  Level FlightAware Approximate
02:05AM -10.4585 -68.7082 167° South  Level FlightAware Approximate
02:06AM -10.5842 -68.6775 167° South  Level FlightAware Approximate
02:07AM -10.7100 -68.6468 167° South  Level FlightAware Approximate
02:08AM -10.8357 -68.6161 167° South  Level FlightAware Approximate
02:09AM -10.9615 -68.5853 167° South  Level FlightAware Approximate
02:10AM -11.0873 -68.5546 166° South  Level FlightAware Approximate
02:11AM -11.2130 -68.5238 166° South  Level FlightAware Approximate
02:12AM -11.3388 -68.4929 166° South  Level FlightAware Approximate
02:13AM -11.4645 -68.4621 166° South  Level FlightAware Approximate
02:14AM -11.5903 -68.4312 166° South  Level FlightAware Approximate
02:15AM -11.7160 -68.4003 166° South  Level FlightAware Approximate
02:16AM -11.8417 -68.3693 166° South  Level FlightAware Approximate
02:17AM -11.9675 -68.3384 166° South  Level FlightAware Approximate
02:18AM -12.0932 -68.3074 166° South  Level FlightAware Approximate
02:19AM -12.2189 -68.2763 166° South  Level FlightAware Approximate
02:20AM -12.3446 -68.2453 166° South  Level FlightAware Approximate
02:21AM -12.4704 -68.2142 166° South  Level FlightAware Approximate
02:22AM -12.5961 -68.1831 166° South  Level FlightAware Approximate
02:23AM -12.7218 -68.1519 166° South  Level FlightAware Approximate
02:24AM -12.8475 -68.1207 166° South  Level FlightAware Approximate
02:25AM -12.9732 -68.0895 166° South  Level FlightAware Approximate
02:26AM -13.0989 -68.0583 166° South  Level FlightAware Approximate
02:27AM -13.2246 -68.0270 166° South  Level FlightAware Approximate
02:28AM -13.3503 -67.9957 166° South  Level FlightAware Approximate
02:29AM -13.4760 -67.9644 166° South  Level FlightAware Approximate
02:30AM -13.6017 -67.9330 166° South  Level FlightAware Approximate
02:31AM -13.7273 -67.9016 166° South  Level FlightAware Approximate
02:32AM -13.8530 -67.8702 166° South  Level FlightAware Approximate
02:33AM -13.9787 -67.8387 166° South  Level FlightAware Approximate
02:34AM -14.1044 -67.8072 166° South  Level FlightAware Approximate
02:35AM -14.2300 -67.7756 166° South  Level FlightAware Approximate
02:36AM -14.3557 -67.7441 166° South  Level FlightAware Approximate
02:37AM -14.4813 -67.7125 166° South  Level FlightAware Approximate
02:38AM -14.6070 -67.6808 166° South  Level FlightAware Approximate
02:39AM -14.7326 -67.6491 166° South  Level FlightAware Approximate
02:40AM -14.8583 -67.6174 166° South  Level FlightAware Approximate
02:41AM -14.9839 -67.5856 166° South  Level FlightAware Approximate
02:42AM -15.1095 -67.5539 166° South  Level FlightAware Approximate
02:43AM -15.2352 -67.5220 166° South  Level FlightAware Approximate
02:44AM -15.3608 -67.4902 166° South  Level FlightAware Approximate
02:45AM -15.4864 -67.4583 166° South  Level FlightAware Approximate
02:46AM -15.6120 -67.4263 166° South  Level FlightAware Approximate
02:47AM -15.7376 -67.3943 166° South  Level FlightAware Approximate
02:48AM -15.8633 -67.3623 166° South  Level FlightAware Approximate
02:49AM -15.9889 -67.3302 166° South  Level FlightAware Approximate
02:50AM -16.1145 -67.2981 166° South  Level FlightAware Approximate
02:51AM -16.2400 -67.2660 166° South  Level FlightAware Approximate
02:52AM -16.3656 -67.2338 166° South  Level FlightAware Approximate
02:53AM -16.4912 -67.2016 166° South  Level FlightAware Approximate
02:54AM -16.6168 -67.1693 166° South  Level FlightAware Approximate
02:55AM -16.7424 -67.1370 166° South  Level FlightAware Approximate
02:56AM -16.8679 -67.1046 166° South  Level FlightAware Approximate
02:57AM -16.9935 -67.0722 166° South  Level FlightAware Approximate
02:58AM -17.1191 -67.0398 166° South  Level FlightAware Approximate
02:59AM -17.2446 -67.0073 166° South  Level FlightAware Approximate
03:00AM -17.3702 -66.9748 166° South  Level FlightAware Approximate
03:01AM -17.4957 -66.9422 166° South  Level FlightAware Approximate
03:02AM -17.6212 -66.9096 166° South  Level FlightAware Approximate
03:03AM -17.7468 -66.8769 166° South  Level FlightAware Approximate
03:04AM -17.8723 -66.8442 166° South  Level FlightAware Approximate
03:05AM -17.9978 -66.8114 166° South  Level FlightAware Approximate
03:06AM -18.1233 -66.7786 166° South  Level FlightAware Approximate
03:07AM -18.2488 -66.7458 166° South  Level FlightAware Approximate
03:08AM -18.3743 -66.7129 166° South  Level FlightAware Approximate
03:09AM -18.4998 -66.6799 166° South  Level FlightAware Approximate
03:10AM -18.6253 -66.6470 166° South  Level FlightAware Approximate
03:11AM -18.7508 -66.6139 166° South  Level FlightAware Approximate
03:12AM -18.8763 -66.5808 166° South  Level FlightAware Approximate
03:13AM -19.0018 -66.5477 166° South  Level FlightAware Approximate
03:14AM -19.1273 -66.5145 166° South  Level FlightAware Approximate
03:15AM -19.2527 -66.4813 166° South  Level FlightAware Approximate
03:16AM -19.3782 -66.4480 166° South  Level FlightAware Approximate
03:17AM -19.5036 -66.4146 166° South  Level FlightAware Approximate
03:18AM -19.6291 -66.3812 166° South  Level FlightAware Approximate
03:19AM -19.7545 -66.3478 166° South  Level FlightAware Approximate
03:20AM -19.8799 -66.3143 166° South  Level FlightAware Approximate
03:21AM -20.0054 -66.2807 166° South  Level FlightAware Approximate
03:22AM -20.1308 -66.2471 166° South  Level FlightAware Approximate
03:23AM -20.2562 -66.2135 166° South  Level FlightAware Approximate
03:24AM -20.3816 -66.1797 166° South  Level FlightAware Approximate
03:25AM -20.5070 -66.1460 166° South  Level FlightAware Approximate
03:26AM -20.6324 -66.1121 166° South  Level FlightAware Approximate
03:27AM -20.7578 -66.0783 166° South  Level FlightAware Approximate
03:28AM -20.8832 -66.0443 166° South  Level FlightAware Approximate
03:29AM -21.0086 -66.0103 166° South  Level FlightAware Approximate
03:30AM -21.1339 -65.9763 166° South  Level FlightAware Approximate
03:31AM -21.2593 -65.9422 166° South  Level FlightAware Approximate
03:32AM -21.3846 -65.9080 166° South  Level FlightAware Approximate
03:33AM -21.5100 -65.8738 166° South  Level FlightAware Approximate
03:34AM -21.6353 -65.8395 166° South  Level FlightAware Approximate
03:35AM -21.7607 -65.8051 166° South  Level FlightAware Approximate
03:36AM -21.8860 -65.7707 166° South  Level FlightAware Approximate
03:37AM -22.0113 -65.7363 166° South  Level FlightAware Approximate
03:38AM -22.1366 -65.7017 166° South  Level FlightAware Approximate
03:39AM -22.2619 -65.6671 166° South  Level FlightAware Approximate
03:40AM -22.3872 -65.6325 166° South  Level FlightAware Approximate
03:41AM -22.5125 -65.5978 166° South  Level FlightAware Approximate
03:42AM -22.6378 -65.5630 166° South  Level FlightAware Approximate
03:43AM -22.7631 -65.5282 166° South  Level FlightAware Approximate
03:44AM -22.8883 -65.4933 166° South  Level FlightAware Approximate
03:45AM -23.0136 -65.4583 166° South  Level FlightAware Approximate
03:46AM -23.1388 -65.4233 166° South  Level FlightAware Approximate
03:47AM -23.2641 -65.3882 166° South  Level FlightAware Approximate
03:48AM -23.3893 -65.3530 166° South  Level FlightAware Approximate
03:49AM -23.5145 -65.3178 166° South  Level FlightAware Approximate
03:50AM -23.6398 -65.2825 166° South  Level FlightAware Approximate
03:51AM -23.7650 -65.2471 166° South  Level FlightAware Approximate
03:52AM -23.8902 -65.2117 165° South  Level FlightAware Approximate
03:53AM -24.0154 -65.1762 165° South  Level FlightAware Approximate
03:54AM -24.1406 -65.1406 165° South  Level FlightAware Approximate
03:55AM -24.2658 -65.1050 165° South  Level FlightAware Approximate
03:56AM -24.3909 -65.0693 165° South  Level FlightAware Approximate
03:57AM -24.5068 -65.0067 153° Southeast  Level FlightAware Approximate
03:58AM -24.6219 -64.9419 153° Southeast  Level FlightAware Approximate
03:59AM -24.7370 -64.8770 153° Southeast  Level FlightAware Approximate
04:00AM -24.8521 -64.8119 153° Southeast  Level FlightAware Approximate
04:01AM -24.9671 -64.7467 153° Southeast  Level FlightAware Approximate
04:02AM -25.0821 -64.6814 153° Southeast  Level FlightAware Approximate
04:03AM -25.1971 -64.6160 153° Southeast  Level FlightAware Approximate
04:04AM -25.3121 -64.5505 153° Southeast  Level FlightAware Approximate
04:05AM -25.4270 -64.4848 153° Southeast  Level FlightAware Approximate
04:06AM -25.5419 -64.4191 153° Southeast  Level FlightAware Approximate
04:07AM -25.6567 -64.3532 153° Southeast  Level FlightAware Approximate
04:08AM -25.7716 -64.2871 153° Southeast  Level FlightAware Approximate
04:09AM -25.8864 -64.2210 153° Southeast  Level FlightAware Approximate
04:10AM -26.0011 -64.1547 153° Southeast  Level FlightAware Approximate
04:11AM -26.1159 -64.0882 153° Southeast  Level FlightAware Approximate
04:12AM -26.2306 -64.0217 153° Southeast  Level FlightAware Approximate
04:13AM -26.3453 -63.9550 152° Southeast  Level FlightAware Approximate
04:14AM -26.4599 -63.8882 152° Southeast  Level FlightAware Approximate
04:15AM -26.5745 -63.8213 152° Southeast  Level FlightAware Approximate
04:16AM -26.6891 -63.7542 152° Southeast  Level FlightAware Approximate
04:17AM -26.8037 -63.6870 152° Southeast  Level FlightAware Approximate
04:18AM -26.9182 -63.6196 152° Southeast  Level FlightAware Approximate
04:19AM -27.0327 -63.5521 152° Southeast  Level FlightAware Approximate
04:20AM -27.1472 -63.4845 152° Southeast  Level FlightAware Approximate
04:21AM -27.2616 -63.4167 152° Southeast  Level FlightAware Approximate
04:22AM -27.3760 -63.3488 152° Southeast  Level FlightAware Approximate
04:23AM -27.4904 -63.2807 152° Southeast  Level FlightAware Approximate
04:24AM -27.6047 -63.2126 152° Southeast  Level FlightAware Approximate
04:25AM -27.7190 -63.1442 152° Southeast  Level FlightAware Approximate
04:26AM -27.8332 -63.0757 152° Southeast  Level FlightAware Approximate
04:27AM -27.9475 -63.0071 152° Southeast  Level FlightAware Approximate
04:28AM -28.0617 -62.9384 152° Southeast  Level FlightAware Approximate
04:29AM -28.1758 -62.8694 152° Southeast  Level FlightAware Approximate
04:30AM -28.2900 -62.8004 152° Southeast  Level FlightAware Approximate
04:31AM -28.4041 -62.7312 152° Southeast  Level FlightAware Approximate
04:32AM -28.5181 -62.6618 152° Southeast  Level FlightAware Approximate
04:33AM -28.6321 -62.5923 152° Southeast  Level FlightAware Approximate
04:34AM -28.7461 -62.5226 152° Southeast  Level FlightAware Approximate
04:35AM -28.8601 -62.4528 152° Southeast  Level FlightAware Approximate
04:36AM -28.9740 -62.3829 152° Southeast  Level FlightAware Approximate
04:37AM -29.0879 -62.3128 152° Southeast  Level FlightAware Approximate
04:38AM -29.2017 -62.2425 152° Southeast  Level FlightAware Approximate
04:39AM -29.3155 -62.1721 152° Southeast  Level FlightAware Approximate
04:40AM -29.4293 -62.1015 152° Southeast  Level FlightAware Approximate
04:41AM -29.5430 -62.0307 152° Southeast  Level FlightAware Approximate
04:42AM -29.6567 -61.9598 152° Southeast  Level FlightAware Approximate
04:43AM -29.7703 -61.8888 152° Southeast  Level FlightAware Approximate
04:44AM -29.8840 -61.8175 151° Southeast  Level FlightAware Approximate
04:45AM -29.9975 -61.7462 151° Southeast  Level FlightAware Approximate
04:46AM -30.1111 -61.6746 151° Southeast  Level FlightAware Approximate
04:47AM -30.2246 -61.6029 151° Southeast  Level FlightAware Approximate
04:48AM -30.3381 -61.5310 151° Southeast  Level FlightAware Approximate
04:49AM -30.4515 -61.4590 151° Southeast  Level FlightAware Approximate
04:50AM -30.5648 -61.3867 151° Southeast  Level FlightAware Approximate
04:51AM -30.6782 -61.3144 151° Southeast  Level FlightAware Approximate
04:52AM -30.7915 -61.2418 151° Southeast  Level FlightAware Approximate
04:53AM -30.9048 -61.1691 151° Southeast  Level FlightAware Approximate
04:54AM -31.0180 -61.0962 151° Southeast  Level FlightAware Approximate
04:55AM -31.1311 -61.0231 151° Southeast  Level FlightAware Approximate
04:56AM -31.2443 -60.9498 151° Southeast  Level FlightAware Approximate
04:57AM -31.3574 -60.8764 151° Southeast  Level FlightAware Approximate
04:58AM -31.4704 -60.8028 151° Southeast  Level FlightAware Approximate
04:59AM -31.5835 -60.7290 151° Southeast  Level FlightAware Approximate
05:00AM -31.6964 -60.6551 151° Southeast  Level FlightAware Approximate
05:01AM -31.8094 -60.5810 151° Southeast  Level FlightAware Approximate
05:02AM -31.9223 -60.5066 151° Southeast  Level FlightAware Approximate
05:03AM -32.0351 -60.4321 151° Southeast  Level FlightAware Approximate
05:04AM -32.1479 -60.3575 151° Southeast  Level FlightAware Approximate
05:05AM -32.2606 -60.2826 151° Southeast  Level FlightAware Approximate
05:06AM -32.3733 -60.2075 151° Southeast  Level FlightAware Approximate
05:07AM -32.4860 -60.1323 151° Southeast  Level FlightAware Approximate
05:08AM -32.5986 -60.0569 151° Southeast  Level FlightAware Approximate
05:09AM -32.7113 -59.9814 151° Southeast  Level FlightAware Approximate
05:10AM -32.8241 -59.9062 151° Southeast  Level FlightAware Approximate
05:11AM -32.9368 -59.8306 147° Southeast  Level FlightAware Approximate
05:12AM -33.0452 -59.7464 147° Southeast  Level FlightAware Approximate
05:13AM -33.1606 -59.6781 157° South  Level FlightAware Approximate
05:14AM -33.2711 -59.5985 147° Southeast  Level FlightAware Approximate
05:15AM -33.3815 -59.5179 151° Southeast  Level FlightAware Approximate
05:16AM -33.4945 -59.4426 151° Southeast  Level FlightAware Approximate
05:17AM -33.6074 -59.3669 150° Southeast  Level FlightAware Approximate
05:18AM -33.7198 -59.2900 150° Southeast  Level FlightAware Approximate
05:19AM -33.8321 -59.2130 150° Southeast  Level FlightAware Approximate
05:20AM -33.9444 -59.1357 150° Southeast  Level FlightAware Approximate
05:21AM -34.0567 -59.0582 150° Southeast  Level FlightAware Approximate
05:22AM -34.1694 -58.9816 151° Southeast  Level FlightAware Approximate
05:23AM -34.2823 -58.9053 149° Southeast  Level FlightAware Approximate
05:24AM -34.3932 -58.8247 149° Southeast  Level FlightAware Approximate
05:25AM -34.5053 -58.7465 151° Southeast  Level FlightAware Approximate
05:26AM -34.6181 -58.6698 148° Southeast  Level FlightAware Approximate
05:27AM -34.7281 -58.5872 148° Southeast  Level FlightAware Approximate
05:28AM -34.8167 -58.5167 147° Southeast  Level FlightAware Approximate
05:29AM -34.8235 -58.5288 147° Southeast  Level Estimated
05:30AM -34.8235 -58.5288 147° Southeast  Level Estimated
05:31AM -34.8235 -58.5288 147° Southeast  Level Estimated
05:32AM -34.8235 -58.5288 147° Southeast  Level Estimated
05:33AM -34.8235 -58.5288 147° Southeast  Level Estimated
05:34AM -34.8235 -58.5288 147° Southeast  Level Estimated
05:35AM -34.8235 -58.5288 147° Southeast  Level Estimated
05:36AM -34.8235 -58.5288 147° Southeast  Level Estimated
05:37AM -34.8235 -58.5288 147° Southeast  Level Estimated
05:38AM -34.8235 -58.5288 147° Southeast  Level Estimated
05:39AM -34.8235 -58.5288 147° Southeast  Level Estimated
05:40AM -34.8235 -58.5288 147° Southeast  Level Estimated
05:41AM -34.8235 -58.5288 147° Southeast  Level Estimated
05:42AM -34.8235 -58.5288 147° Southeast  Level Estimated
05:43AM -34.8235 -58.5288 147° Southeast  Level Estimated